createdAt,value
2022-07-27T00:00:43.567Z,98330.66
2022-07-27T00:01:51.173Z,98329.06
2022-07-27T00:02:53.386Z,98333.69
2022-07-27T00:03:54.941Z,98334.81
2022-07-27T00:04:56.496Z,98331.00
2022-07-27T00:05:58.133Z,98335.66
2022-07-27T00:06:59.639Z,98336.03
2022-07-27T00:08:01.148Z,98332.56
2022-07-27T00:09:03.411Z,98329.84
2022-07-27T00:10:05.988Z,98334.09
2022-07-27T00:11:08.987Z,98329.50
2022-07-27T00:12:10.590Z,98326.75
2022-07-27T00:13:12.572Z,98326.75
2022-07-27T00:14:14.412Z,98330.19
2022-07-27T00:15:15.981Z,98335.94
2022-07-27T00:16:17.583Z,98340.56
2022-07-27T00:17:19.138Z,98339.78
2022-07-27T00:18:20.686Z,98336.75
2022-07-27T00:19:22.191Z,98329.84
2022-07-27T00:20:27.217Z,98338.31
2022-07-27T00:21:29.006Z,98334.44
2022-07-27T00:22:30.566Z,98329.84
2022-07-27T00:23:32.154Z,98322.91
2022-07-27T00:24:33.736Z,98322.53
2022-07-27T00:25:35.538Z,98322.09
2022-07-27T00:26:37.058Z,98322.88
2022-07-27T00:27:38.572Z,98322.88
2022-07-27T00:28:40.063Z,98330.13
2022-07-27T00:29:41.609Z,98327.81
2022-07-27T00:30:43.311Z,98326.72
2022-07-27T00:31:44.855Z,98331.31
2022-07-27T00:32:46.391Z,98330.91
2022-07-27T00:33:47.877Z,98325.13
2022-07-27T00:34:49.473Z,98328.59
2022-07-27T00:35:51.043Z,98328.13
2022-07-27T00:36:52.606Z,98334.31
2022-07-27T00:37:54.108Z,98329.34
2022-07-27T00:38:55.686Z,98334.69
2022-07-27T00:39:57.187Z,98329.75
2022-07-27T00:40:58.794Z,98337.00
2022-07-27T00:42:00.309Z,98332.75
2022-07-27T00:43:01.799Z,98331.22
2022-07-27T00:44:03.416Z,98328.16
2022-07-27T00:45:05.514Z,98325.94
2022-07-27T00:46:07.031Z,98327.06
2022-07-27T00:47:08.595Z,98322.06
2022-07-27T00:48:10.286Z,98314.72
2022-07-27T00:49:12.121Z,98314.72
2022-07-27T00:50:13.932Z,98316.28
2022-07-27T00:51:17.540Z,98317.03
2022-07-27T00:52:21.330Z,98312.78
2022-07-27T00:53:22.918Z,98315.91
2022-07-27T00:54:24.994Z,98315.91
2022-07-27T00:55:26.884Z,98313.59
2022-07-27T00:56:28.496Z,98310.44
2022-07-27T00:57:30.103Z,98312.38
2022-07-27T00:58:32.164Z,98314.66
2022-07-27T00:59:33.684Z,98311.19
2022-07-27T01:00:37.901Z,98316.94
2022-07-27T01:01:39.995Z,98308.84
2022-07-27T01:02:46.378Z,98310.41
2022-07-27T01:03:48.965Z,98314.25
2022-07-27T01:04:53.701Z,98309.25
2022-07-27T01:05:58.929Z,98311.16
2022-07-27T01:07:03.485Z,98304.59
2022-07-27T01:08:05.936Z,98315.00
2022-07-27T01:09:07.526Z,98314.19
2022-07-27T01:10:09.064Z,98316.50
2022-07-27T01:11:11.622Z,98313.44
2022-07-27T01:12:15.634Z,98311.50
2022-07-27T01:13:17.450Z,98315.34
2022-07-27T01:14:19.053Z,98315.00
2022-07-27T01:15:20.922Z,98318.09
2022-07-27T01:16:22.557Z,98320.72
2022-07-27T01:17:26.423Z,98318.38
2022-07-27T01:18:33.533Z,98320.34
2022-07-27T01:19:35.039Z,98322.63
2022-07-27T01:20:36.759Z,98318.00
2022-07-27T01:21:38.570Z,98313.38
2022-07-27T01:22:40.137Z,98318.75
2022-07-27T01:23:41.710Z,98310.25
2022-07-27T01:24:43.326Z,98308.38
2022-07-27T01:25:44.874Z,98312.22
2022-07-27T01:26:46.851Z,98304.91
2022-07-27T01:27:48.455Z,98309.13
2022-07-27T01:28:50.047Z,98318.34
2022-07-27T01:29:51.589Z,98304.09
2022-07-27T01:30:55.007Z,98306.44
2022-07-27T01:31:57.558Z,98296.81
2022-07-27T01:33:08.355Z,98296.44
2022-07-27T01:34:10.129Z,98304.16
2022-07-27T01:35:11.800Z,98305.28
2022-07-27T01:36:13.324Z,98305.28
2022-07-27T01:37:14.982Z,98301.78
2022-07-27T01:38:16.517Z,98303.31
2022-07-27T01:39:19.235Z,98304.81
2022-07-27T01:40:21.088Z,98299.03
2022-07-27T01:41:22.682Z,98299.78
2022-07-27T01:42:24.164Z,98295.53
2022-07-27T01:43:26.195Z,98285.09
2022-07-27T01:44:27.808Z,98282.41
2022-07-27T01:45:29.656Z,98285.44
2022-07-27T01:46:31.182Z,98288.53
2022-07-27T01:47:32.753Z,98283.09
2022-07-27T01:48:34.352Z,98281.94
2022-07-27T01:49:35.927Z,98282.66
2022-07-27T01:50:38.125Z,98282.25
2022-07-27T01:51:39.659Z,98283.75
2022-07-27T01:52:41.206Z,98281.06
2022-07-27T01:53:42.791Z,98275.28
2022-07-27T01:54:44.388Z,98282.16
2022-07-27T01:55:45.962Z,98287.53
2022-07-27T01:56:47.463Z,98285.97
2022-07-27T01:57:50.035Z,98280.56
2022-07-27T01:58:51.612Z,98278.22
2022-07-27T01:59:53.514Z,98280.88
2022-07-27T02:00:55.018Z,98280.88
2022-07-27T02:01:56.652Z,98282.38
2022-07-27T02:02:58.447Z,98279.38
2022-07-27T02:03:59.964Z,98279.41
2022-07-27T02:05:01.823Z,98277.44
2022-07-27T02:06:04.286Z,98277.44
2022-07-27T02:07:05.803Z,98279.69
2022-07-27T02:08:08.169Z,98274.31
2022-07-27T02:09:10.019Z,98278.91
2022-07-27T02:10:11.917Z,98269.66
2022-07-27T02:11:13.429Z,98271.19
2022-07-27T02:12:14.998Z,98276.28
2022-07-27T02:13:22.249Z,98273.94
2022-07-27T02:14:24.817Z,98272.00
2022-07-27T02:15:27.746Z,98273.94
2022-07-27T02:16:32.255Z,98270.47
2022-07-27T02:17:35.181Z,98278.88
2022-07-27T02:18:36.957Z,98272.66
2022-07-27T02:19:39.768Z,98276.06
2022-07-27T02:20:41.316Z,98273.75
2022-07-27T02:21:42.921Z,98266.50
2022-07-27T02:22:45.015Z,98277.25
2022-07-27T02:23:46.528Z,98271.44
2022-07-27T02:24:48.196Z,98269.47
2022-07-27T02:25:49.672Z,98273.97
2022-07-27T02:26:51.220Z,98274.69
2022-07-27T02:27:52.696Z,98276.22
2022-07-27T02:28:54.270Z,98274.63
2022-07-27T02:29:55.806Z,98275.00
2022-07-27T02:30:57.286Z,98280.72
2022-07-27T02:31:58.810Z,98283.06
2022-07-27T02:33:00.388Z,98278.41
2022-07-27T02:34:01.955Z,98271.47
2022-07-27T02:35:19.632Z,98266.81
2022-07-27T02:36:21.956Z,98273.72
2022-07-27T02:37:23.467Z,98270.97
2022-07-27T02:38:25.043Z,98269.75
2022-07-27T02:39:26.544Z,98273.50
2022-07-27T02:40:28.164Z,98268.09
2022-07-27T02:41:29.639Z,98274.53
2022-07-27T02:42:31.154Z,98271.09
2022-07-27T02:43:32.661Z,98273.00
2022-07-27T02:44:35.035Z,98277.59
2022-07-27T02:45:36.630Z,98277.16
2022-07-27T02:46:38.168Z,98277.53
2022-07-27T02:47:39.871Z,98271.41
2022-07-27T02:48:41.372Z,98270.19
2022-07-27T02:49:43.094Z,98283.63
2022-07-27T02:50:44.637Z,98282.84
2022-07-27T02:51:49.658Z,98275.53
2022-07-27T02:52:51.179Z,98275.88
2022-07-27T02:53:52.646Z,98278.16
2022-07-27T02:54:54.226Z,98270.81
2022-07-27T02:55:56.443Z,98270.78
2022-07-27T02:57:00.678Z,98271.88
2022-07-27T02:58:02.231Z,98279.19
2022-07-27T02:59:03.738Z,98274.94
2022-07-27T03:00:07.411Z,98274.13
2022-07-27T03:01:08.943Z,98279.00
2022-07-27T03:02:10.539Z,98277.88
2022-07-27T03:03:12.094Z,98280.22
2022-07-27T03:04:13.863Z,98282.47
2022-07-27T03:05:15.810Z,98282.84
2022-07-27T03:06:17.635Z,98279.31
2022-07-27T03:07:19.155Z,98277.34
2022-07-27T03:08:20.708Z,98278.47
2022-07-27T03:09:33.029Z,98279.19
2022-07-27T03:10:35.386Z,98278.72
2022-07-27T03:11:37.685Z,98275.59
2022-07-27T03:12:39.293Z,98270.16
2022-07-27T03:13:40.881Z,98280.56
2022-07-27T03:14:42.433Z,98282.88
2022-07-27T03:15:44.130Z,98282.44
2022-07-27T03:16:45.709Z,98286.34
2022-07-27T03:17:47.428Z,98285.50
2022-07-27T03:18:49.860Z,98287.34
2022-07-27T03:19:51.519Z,98280.44
2022-07-27T03:20:53.042Z,98285.38
2022-07-27T03:21:54.683Z,98286.84
2022-07-27T03:22:56.191Z,98292.94
2022-07-27T03:23:57.706Z,98289.47
2022-07-27T03:24:59.264Z,98290.97
2022-07-27T03:26:00.803Z,98291.75
2022-07-27T03:27:02.413Z,98290.91
2022-07-27T03:28:04.859Z,98287.81
2022-07-27T03:29:06.406Z,98289.72
2022-07-27T03:30:08.883Z,98292.41
2022-07-27T03:31:10.508Z,98286.59
2022-07-27T03:32:12.066Z,98282.38
2022-07-27T03:33:13.674Z,98285.00
2022-07-27T03:34:15.202Z,98287.38
2022-07-27T03:35:16.746Z,98290.44
2022-07-27T03:36:21.161Z,98295.03
2022-07-27T03:37:22.717Z,98289.72
2022-07-27T03:38:24.257Z,98297.41
2022-07-27T03:39:25.767Z,98288.59
2022-07-27T03:40:27.370Z,98295.88
2022-07-27T03:41:28.942Z,98292.41
2022-07-27T03:42:30.447Z,98299.41
2022-07-27T03:43:32.019Z,98291.34
2022-07-27T03:44:33.708Z,98297.81
2022-07-27T03:45:35.558Z,98291.81
2022-07-27T03:46:37.675Z,98289.06
2022-07-27T03:47:39.193Z,98289.91
2022-07-27T03:48:40.892Z,98284.09
2022-07-27T03:49:42.419Z,98287.28
2022-07-27T03:50:43.979Z,98296.06
2022-07-27T03:51:45.478Z,98296.06
2022-07-27T03:52:47.008Z,98290.63
2022-07-27T03:53:48.550Z,98292.53
2022-07-27T03:54:50.075Z,98294.38
2022-07-27T03:55:51.834Z,98292.81
2022-07-27T03:56:53.388Z,98298.19
2022-07-27T03:57:54.930Z,98295.13
2022-07-27T03:58:56.441Z,98287.44
2022-07-27T03:59:57.947Z,98293.59
2022-07-27T04:00:59.454Z,98293.66
2022-07-27T04:02:01.041Z,98289.84
2022-07-27T04:03:02.742Z,98296.41
2022-07-27T04:04:04.787Z,98287.56
2022-07-27T04:05:07.146Z,98293.28
2022-07-27T04:06:08.763Z,98292.94
2022-07-27T04:07:10.295Z,98295.97
2022-07-27T04:08:11.879Z,98300.97
2022-07-27T04:09:14.224Z,98310.94
2022-07-27T04:10:15.904Z,98305.66
2022-07-27T04:11:17.729Z,98310.34
2022-07-27T04:12:20.429Z,98310.72
2022-07-27T04:13:22.830Z,98305.72
2022-07-27T04:14:24.377Z,98308.09
2022-07-27T04:15:26.315Z,98317.69
2022-07-27T04:16:30.720Z,98314.31
2022-07-27T04:17:55.238Z,98306.13
2022-07-27T04:18:56.156Z,98307.25
2022-07-27T04:19:57.767Z,98315.31
2022-07-27T04:20:59.416Z,98314.94
2022-07-27T04:22:00.936Z,98322.59
2022-07-27T04:23:02.459Z,98316.81
2022-07-27T04:24:04.495Z,98316.44
2022-07-27T04:25:06.855Z,98311.50
2022-07-27T04:26:08.350Z,98309.25
2022-07-27T04:27:09.940Z,98314.38
2022-07-27T04:28:11.502Z,98320.13
2022-07-27T04:29:16.900Z,98311.00
2022-07-27T04:30:22.054Z,98315.59
2022-07-27T04:31:23.721Z,98314.44
2022-07-27T04:32:25.311Z,98311.63
2022-07-27T04:33:26.927Z,98320.47
2022-07-27T04:34:28.430Z,98322.38
2022-07-27T04:35:30.010Z,98318.22
2022-07-27T04:36:31.714Z,98324.00
2022-07-27T04:37:34.443Z,98318.34
2022-07-27T04:38:36.015Z,98321.03
2022-07-27T04:39:37.603Z,98319.22
2022-07-27T04:40:39.203Z,98321.56
2022-07-27T04:41:40.823Z,98316.97
2022-07-27T04:42:48.770Z,98315.94
2022-07-27T04:43:51.434Z,98328.94
2022-07-27T04:44:52.963Z,98325.91
2022-07-27T04:45:54.567Z,98323.66
2022-07-27T04:46:56.255Z,98327.50
2022-07-27T04:47:58.054Z,98326.81
2022-07-27T04:48:59.609Z,98321.84
2022-07-27T04:50:01.232Z,98323.03
2022-07-27T04:51:03.018Z,98329.97
2022-07-27T04:52:04.747Z,98325.75
2022-07-27T04:53:06.335Z,98330.56
2022-07-27T04:54:07.854Z,98330.56
2022-07-27T04:55:10.005Z,98331.72
2022-07-27T04:56:11.549Z,98335.19
2022-07-27T04:57:13.097Z,98339.41
2022-07-27T04:58:15.211Z,98332.88
2022-07-27T04:59:16.747Z,98339.06
2022-07-27T05:00:18.688Z,98338.34
2022-07-27T05:01:20.424Z,98339.09
2022-07-27T05:02:22.126Z,98333.81
2022-07-27T05:03:23.703Z,98338.09
2022-07-27T05:04:25.307Z,98338.53
2022-07-27T05:05:26.898Z,98336.53
2022-07-27T05:06:28.425Z,98337.69
2022-07-27T05:07:30.057Z,98340.38
2022-07-27T05:08:31.626Z,98342.84
2022-07-27T05:09:33.241Z,98346.28
2022-07-27T05:10:34.844Z,98345.13
2022-07-27T05:11:36.362Z,98343.59
2022-07-27T05:12:38.005Z,98349.75
2022-07-27T05:13:39.821Z,98345.13
2022-07-27T05:14:41.399Z,98350.13
2022-07-27T05:15:55.118Z,98350.59
2022-07-27T05:16:57.670Z,98349.97
2022-07-27T05:17:59.310Z,98354.16
2022-07-27T05:19:00.826Z,98352.31
2022-07-27T05:20:02.704Z,98355.34
2022-07-27T05:21:05.318Z,98347.09
2022-07-27T05:22:06.884Z,98350.66
2022-07-27T05:23:08.419Z,98345.78
2022-07-27T05:24:10.012Z,98345.38
2022-07-27T05:25:11.681Z,98356.13
2022-07-27T05:26:13.173Z,98352.69
2022-07-27T05:27:14.655Z,98354.22
2022-07-27T05:28:16.165Z,98361.06
2022-07-27T05:29:17.726Z,98364.16
2022-07-27T05:30:19.725Z,98357.78
2022-07-27T05:31:21.221Z,98355.13
2022-07-27T05:32:24.117Z,98367.75
2022-07-27T05:33:25.842Z,98362.78
2022-07-27T05:34:27.311Z,98368.56
2022-07-27T05:35:28.914Z,98370.03
2022-07-27T05:36:30.366Z,98372.84
2022-07-27T05:37:31.821Z,98375.53
2022-07-27T05:38:33.409Z,98373.59
2022-07-27T05:39:35.007Z,98371.00
2022-07-27T05:40:36.723Z,98374.44
2022-07-27T05:41:38.396Z,98373.22
2022-07-27T05:42:42.832Z,98379.88
2022-07-27T05:43:44.571Z,98376.81
2022-07-27T05:44:46.134Z,98375.78
2022-07-27T05:45:48.032Z,98373.13
2022-07-27T05:46:49.610Z,98368.91
2022-07-27T05:47:51.124Z,98371.72
2022-07-27T05:48:52.748Z,98372.50
2022-07-27T05:49:54.319Z,98374.09
2022-07-27T05:50:55.791Z,98373.31
2022-07-27T05:51:57.288Z,98372.25
2022-07-27T05:52:58.825Z,98368.41
2022-07-27T05:54:00.396Z,98368.47
2022-07-27T05:55:02.063Z,98373.81
2022-07-27T05:56:03.955Z,98373.06
2022-07-27T05:57:05.641Z,98378.09
2022-07-27T05:58:07.179Z,98380.41
2022-07-27T05:59:08.887Z,98379.78
2022-07-27T06:00:11.348Z,98381.34
2022-07-27T06:01:16.370Z,98379.50
2022-07-27T06:02:17.992Z,98385.69
2022-07-27T06:03:19.462Z,98383.72
2022-07-27T06:04:21.091Z,98384.84
2022-07-27T06:05:22.578Z,98382.25
2022-07-27T06:06:24.117Z,98390.34
2022-07-27T06:07:25.766Z,98384.66
2022-07-27T06:08:27.332Z,98390.34
2022-07-27T06:09:28.865Z,98391.06
2022-07-27T06:10:32.749Z,98391.16
2022-07-27T06:11:34.349Z,98391.19
2022-07-27T06:12:40.703Z,98394.63
2022-07-27T06:13:42.645Z,98395.50
2022-07-27T06:14:44.259Z,98398.97
2022-07-27T06:15:54.015Z,98395.13
2022-07-27T06:16:55.704Z,98395.50
2022-07-27T06:17:57.576Z,98396.72
2022-07-27T06:18:59.253Z,98398.34
2022-07-27T06:20:01.026Z,98399.50
2022-07-27T06:21:02.711Z,98396.41
2022-07-27T06:22:04.246Z,98397.22
2022-07-27T06:23:08.077Z,98397.56
2022-07-27T06:24:09.811Z,98393.28
2022-07-27T06:25:11.685Z,98394.84
2022-07-27T06:26:13.231Z,98399.91
2022-07-27T06:27:14.694Z,98394.94
2022-07-27T06:28:16.266Z,98393.44
2022-07-27T06:29:17.838Z,98397.28
2022-07-27T06:30:20.217Z,98391.03
2022-07-27T06:31:22.599Z,98391.09
2022-07-27T06:32:24.176Z,98392.66
2022-07-27T06:33:25.783Z,98394.56
2022-07-27T06:34:30.115Z,98399.22
2022-07-27T06:35:34.924Z,98386.94
2022-07-27T06:36:39.897Z,98385.81
2022-07-27T06:37:41.988Z,98390.78
2022-07-27T06:38:43.649Z,98396.63
2022-07-27T06:39:45.373Z,98392.84
2022-07-27T06:40:46.965Z,98392.16
2022-07-27T06:41:48.477Z,98392.91
2022-07-27T06:42:50.023Z,98389.88
2022-07-27T06:43:51.793Z,98392.22
2022-07-27T06:44:53.636Z,98391.84
2022-07-27T06:45:55.211Z,98390.34
2022-07-27T06:46:56.855Z,98404.50
2022-07-27T06:47:58.468Z,98392.09
2022-07-27T06:49:00.044Z,98397.72
2022-07-27T06:50:02.087Z,98394.69
2022-07-27T06:51:03.713Z,98398.91
2022-07-27T06:52:05.740Z,98396.63
2022-07-27T06:53:07.912Z,98397.50
2022-07-27T06:54:09.431Z,98400.97
2022-07-27T06:55:10.960Z,98397.19
2022-07-27T06:56:12.500Z,98399.06
2022-07-27T06:57:14.060Z,98397.53
2022-07-27T06:58:15.645Z,98390.16
2022-07-27T06:59:18.126Z,98397.19
2022-07-27T07:00:19.728Z,98397.94
2022-07-27T07:01:21.426Z,98396.06
2022-07-27T07:02:23.046Z,98392.22
2022-07-27T07:03:24.618Z,98398.47
2022-07-27T07:04:26.120Z,98386.91
2022-07-27T07:05:27.777Z,98386.91
2022-07-27T07:06:29.317Z,98388.03
2022-07-27T07:07:30.845Z,98396.47
2022-07-27T07:08:32.420Z,98389.88
2022-07-27T07:09:35.048Z,98394.13
2022-07-27T07:10:36.634Z,98392.91
2022-07-27T07:11:38.210Z,98396.47
2022-07-27T07:12:39.713Z,98396.16
2022-07-27T07:13:44.925Z,98395.50
2022-07-27T07:14:46.845Z,98397.88
2022-07-27T07:15:48.377Z,98395.63
2022-07-27T07:16:50.097Z,98393.69
2022-07-27T07:17:52.691Z,98396.81
2022-07-27T07:18:54.324Z,98391.81
2022-07-27T07:19:55.808Z,98398.41
2022-07-27T07:20:57.372Z,98391.44
2022-07-27T07:21:58.904Z,98402.66
2022-07-27T07:23:00.587Z,98396.47
2022-07-27T07:24:02.082Z,98399.94
2022-07-27T07:25:04.243Z,98396.44
2022-07-27T07:26:05.744Z,98403.03
2022-07-27T07:27:07.215Z,98393.00
2022-07-27T07:28:08.899Z,98391.13
2022-07-27T07:29:10.844Z,98399.25
2022-07-27T07:30:12.938Z,98393.47
2022-07-27T07:31:14.483Z,98401.19
2022-07-27T07:32:16.538Z,98398.13
2022-07-27T07:33:18.042Z,98394.66
2022-07-27T07:34:19.547Z,98400.44
2022-07-27T07:35:21.655Z,98395.78
2022-07-27T07:36:23.220Z,98397.31
2022-07-27T07:37:24.785Z,98397.72
2022-07-27T07:38:35.242Z,98401.97
2022-07-27T07:39:39.032Z,98399.66
2022-07-27T07:40:44.006Z,98405.84
2022-07-27T07:41:46.142Z,98395.44
2022-07-27T07:42:48.490Z,98397.31
2022-07-27T07:43:50.618Z,98394.25
2022-07-27T07:44:52.243Z,98401.56
2022-07-27T07:45:53.834Z,98395.38
2022-07-27T07:46:55.426Z,98399.59
2022-07-27T07:47:57.687Z,98395.72
2022-07-27T07:48:59.302Z,98398.47
2022-07-27T07:50:00.869Z,98390.75
2022-07-27T07:51:02.928Z,98390.75
2022-07-27T07:52:04.783Z,98395.72
2022-07-27T07:53:06.310Z,98387.56
2022-07-27T07:54:07.990Z,98392.59
2022-07-27T07:55:09.851Z,98389.13
2022-07-27T07:56:11.348Z,98389.13
2022-07-27T07:57:12.886Z,98387.88
2022-07-27T07:58:14.387Z,98395.16
2022-07-27T07:59:16.099Z,98392.44
2022-07-27T08:00:18.095Z,98390.47
2022-07-27T08:01:19.888Z,98377.91
2022-07-27T08:02:21.488Z,98389.09
2022-07-27T08:03:23.125Z,98387.63
2022-07-27T08:04:24.755Z,98391.19
2022-07-27T08:05:27.210Z,98388.09
2022-07-27T08:06:28.934Z,98392.50
2022-07-27T08:07:30.511Z,98393.38
2022-07-27T08:08:32.041Z,98395.72
2022-07-27T08:09:33.564Z,98390.31
2022-07-27T08:10:37.951Z,98392.63
2022-07-27T08:11:39.434Z,98389.50
2022-07-27T08:12:43.117Z,98396.88
2022-07-27T08:13:44.743Z,98401.13
2022-07-27T08:14:46.329Z,98399.97
2022-07-27T08:15:47.949Z,98391.81
2022-07-27T08:16:49.640Z,98399.94
2022-07-27T08:17:51.191Z,98403.44
2022-07-27T08:18:52.688Z,98403.41
2022-07-27T08:19:54.186Z,98413.41
2022-07-27T08:20:55.777Z,98404.88
2022-07-27T08:21:57.346Z,98410.28
2022-07-27T08:22:59.039Z,98402.16
2022-07-27T08:24:02.704Z,98409.81
2022-07-27T08:25:05.658Z,98402.78
2022-07-27T08:26:08.185Z,98401.13
2022-07-27T08:27:09.926Z,98402.28
2022-07-27T08:28:11.566Z,98400.00
2022-07-27T08:29:14.345Z,98403.75
2022-07-27T08:30:16.447Z,98403.25
2022-07-27T08:31:26.458Z,98410.63
2022-07-27T08:32:28.656Z,98409.00
2022-07-27T08:33:30.367Z,98394.44
2022-07-27T08:34:31.919Z,98402.59
2022-07-27T08:35:34.413Z,98404.06
2022-07-27T08:36:35.910Z,98404.41
2022-07-27T08:37:37.491Z,98401.44
2022-07-27T08:38:38.956Z,98403.31
2022-07-27T08:41:03.139Z,98401.47
2022-07-27T08:42:09.133Z,98402.31
2022-07-27T08:43:11.690Z,98399.66
2022-07-27T08:44:14.195Z,98402.38
2022-07-27T08:45:19.245Z,98398.16
2022-07-27T08:46:21.480Z,98392.28
2022-07-27T08:47:23.432Z,98401.50
2022-07-27T08:48:26.649Z,98404.91
2022-07-27T08:49:42.604Z,98402.47
2022-07-27T08:50:48.561Z,98406.31
2022-07-27T08:51:50.514Z,98406.75
2022-07-27T08:53:02.380Z,98400.28
2022-07-27T08:54:04.308Z,98401.94
2022-07-27T08:55:06.291Z,98399.63
2022-07-27T08:56:09.105Z,98398.06
2022-07-27T08:57:11.316Z,98399.53
2022-07-27T08:58:14.496Z,98405.34
2022-07-27T08:59:16.496Z,98407.72
2022-07-27T09:00:19.471Z,98414.34
2022-07-27T09:01:21.370Z,98418.56
2022-07-27T09:02:23.202Z,98416.28
2022-07-27T09:03:24.981Z,98418.81
2022-07-27T09:04:26.807Z,98416.31
2022-07-27T09:05:36.801Z,98408.31
2022-07-27T09:06:54.134Z,98410.16
2022-07-27T09:08:31.101Z,98406.38
2022-07-27T09:09:44.324Z,98411.88
2022-07-27T09:10:45.843Z,98409.09
2022-07-27T09:12:08.853Z,98396.91
2022-07-27T09:13:26.700Z,98403.63
2022-07-27T09:14:33.431Z,98405.06
2022-07-27T09:16:15.769Z,98400.00
2022-07-27T09:19:03.732Z,98397.22
2022-07-27T09:20:12.077Z,98398.28
2022-07-27T09:21:23.704Z,98391.47
2022-07-27T09:22:48.439Z,98394.53
2022-07-27T09:23:55.027Z,98390.59
2022-07-27T09:25:03.611Z,98395.47
2022-07-27T09:26:31.679Z,98395.53
2022-07-27T09:27:34.341Z,98398.31
2022-07-27T09:28:36.347Z,98385.25
2022-07-27T09:29:37.923Z,98381.03
2022-07-27T09:30:43.329Z,98392.28
2022-07-27T09:31:51.270Z,98392.03
2022-07-27T09:33:05.938Z,98396.78
2022-07-27T09:34:07.872Z,98394.13
2022-07-27T09:35:23.999Z,98398.72
2022-07-27T09:36:27.302Z,98392.13
2022-07-27T09:37:28.930Z,98396.34
2022-07-27T09:38:30.478Z,98401.44
2022-07-27T09:39:32.183Z,98399.13
2022-07-27T09:40:36.098Z,98401.44
2022-07-27T09:41:46.822Z,98403.41
2022-07-27T09:43:31.716Z,98402.97
2022-07-27T09:44:42.716Z,98401.78
2022-07-27T09:45:51.588Z,98397.44
2022-07-27T09:46:53.606Z,98394.72
2022-07-27T09:48:15.607Z,98397.69
2022-07-27T09:49:34.985Z,98398.47
2022-07-27T09:50:37.866Z,98397.28
2022-07-27T09:52:01.926Z,98402.31
2022-07-27T09:53:41.411Z,98393.34
2022-07-27T09:54:45.779Z,98399.09
2022-07-27T09:55:59.219Z,98399.06
2022-07-27T09:57:02.620Z,98397.22
2022-07-27T09:58:04.129Z,98392.59
2022-07-27T09:59:05.931Z,98397.66
2022-07-27T10:00:11.753Z,98393.72
2022-07-27T10:01:21.809Z,98389.50
2022-07-27T10:02:23.540Z,98399.94
2022-07-27T10:03:25.168Z,98394.44
2022-07-27T10:04:26.797Z,98399.09
2022-07-27T10:05:28.949Z,98400.94
2022-07-27T10:06:38.943Z,98401.25
2022-07-27T10:07:52.358Z,98397.34
2022-07-27T10:08:55.303Z,98398.03
2022-07-27T10:09:56.987Z,98396.44
2022-07-27T10:10:59.040Z,98399.06
2022-07-27T10:12:01.173Z,98405.41
2022-07-27T10:13:02.686Z,98397.91
2022-07-27T10:14:04.301Z,98399.81
2022-07-27T10:15:06.761Z,98390.53
2022-07-27T10:16:15.245Z,98391.78
2022-07-27T10:17:16.863Z,98401.03
2022-07-27T10:18:27.806Z,98394.00
2022-07-27T10:19:47.384Z,98394.59
2022-07-27T10:20:49.261Z,98397.53
2022-07-27T10:21:50.751Z,98393.72
2022-07-27T10:22:57.728Z,98395.69
2022-07-27T10:24:04.871Z,98398.94
2022-07-27T10:25:06.947Z,98395.28
2022-07-27T10:26:36.881Z,98394.00
2022-07-27T10:27:38.430Z,98398.72
2022-07-27T10:29:17.180Z,98394.72
2022-07-27T10:30:27.735Z,98394.00
2022-07-27T10:31:36.078Z,98394.44
2022-07-27T10:32:37.633Z,98390.53
2022-07-27T10:33:44.425Z,98392.06
2022-07-27T10:34:45.939Z,98395.16
2022-07-27T10:35:47.588Z,98400.75
2022-07-27T10:36:53.377Z,98400.25
2022-07-27T10:38:15.451Z,98394.97
2022-07-27T10:39:34.941Z,98394.44
2022-07-27T10:40:36.769Z,98391.63
2022-07-27T10:41:41.777Z,98397.69
2022-07-27T10:42:53.561Z,98396.44
2022-07-27T10:44:17.759Z,98395.34
2022-07-27T10:45:19.598Z,98380.13
2022-07-27T10:46:21.577Z,98389.72
2022-07-27T10:47:51.114Z,98393.81
2022-07-27T10:48:52.819Z,98384.59
2022-07-27T10:50:16.990Z,98386.69
2022-07-27T10:51:34.655Z,98395.09
2022-07-27T10:52:56.181Z,98388.56
2022-07-27T10:54:11.789Z,98386.13
2022-07-27T10:55:31.897Z,98399.19
2022-07-27T10:56:47.406Z,98393.38
2022-07-27T10:57:49.132Z,98391.00
2022-07-27T10:58:51.510Z,98393.84
2022-07-27T11:00:11.089Z,98383.19
2022-07-27T11:01:16.085Z,98378.94
2022-07-27T11:02:37.921Z,98381.22
2022-07-27T11:03:43.714Z,98375.16
2022-07-27T11:04:48.688Z,98370.59
2022-07-27T11:06:33.036Z,98379.88
2022-07-27T11:07:44.641Z,98376.13
2022-07-27T11:09:01.742Z,98372.97
2022-07-27T11:10:10.341Z,98376.78
2022-07-27T11:11:23.284Z,98374.06
2022-07-27T11:12:28.542Z,98369.53
2022-07-27T11:13:38.679Z,98374.38
2022-07-27T11:14:51.408Z,98376.09
2022-07-27T11:15:59.864Z,98382.25
2022-07-27T11:17:47.368Z,98375.69
2022-07-27T11:18:38.815Z,98374.81
2022-07-27T11:19:40.957Z,98371.06
2022-07-27T11:20:42.713Z,98373.16
2022-07-27T11:21:44.246Z,98367.72
2022-07-27T11:23:26.621Z,98375.25
2022-07-27T11:24:13.064Z,98376.97
2022-07-27T11:25:14.912Z,98374.53
2022-07-27T11:26:16.667Z,98379.75
2022-07-27T11:27:22.162Z,98369.84
2022-07-27T11:28:31.293Z,98376.41
2022-07-27T11:29:35.346Z,98377.38
2022-07-27T11:30:41.830Z,98376.56
2022-07-27T11:31:55.311Z,98374.56
2022-07-27T11:33:03.956Z,98374.34
2022-07-27T11:34:06.023Z,98369.41
2022-07-27T11:35:19.276Z,98363.88
2022-07-27T11:36:22.158Z,98372.97
2022-07-27T11:37:23.655Z,98370.44
2022-07-27T11:38:25.594Z,98369.81
2022-07-27T11:39:58.610Z,98360.72
2022-07-27T11:40:57.341Z,98366.25
2022-07-27T11:42:11.903Z,98364.28
2022-07-27T11:43:14.579Z,98356.03
2022-07-27T11:44:17.341Z,98351.41
2022-07-27T11:45:29.376Z,98353.16
2022-07-27T11:46:33.081Z,98353.06
2022-07-27T11:47:34.704Z,98349.16
2022-07-27T11:49:03.911Z,98348.66
2022-07-27T11:50:06.065Z,98356.16
2022-07-27T11:51:07.742Z,98352.28
2022-07-27T11:52:10.418Z,98355.28
2022-07-27T11:53:12.099Z,98356.66
2022-07-27T11:54:20.420Z,98350.75
2022-07-27T11:55:22.004Z,98343.50
2022-07-27T11:56:27.592Z,98339.84
2022-07-27T11:57:33.209Z,98353.25
2022-07-27T11:58:52.883Z,98342.66
2022-07-27T11:59:54.372Z,98344.13
2022-07-27T12:00:55.966Z,98344.97
2022-07-27T12:02:03.755Z,98342.06
2022-07-27T12:03:05.365Z,98346.75
2022-07-27T12:04:12.537Z,98341.97
2022-07-27T12:05:14.651Z,98347.94
2022-07-27T12:06:16.341Z,98338.63
2022-07-27T12:07:43.690Z,98341.94
2022-07-27T12:08:45.294Z,98340.31
2022-07-27T12:09:50.309Z,98348.00
2022-07-27T12:11:01.048Z,98346.22
2022-07-27T12:12:23.997Z,98338.66
2022-07-27T12:13:35.645Z,98336.63
2022-07-27T12:14:39.946Z,98346.78
2022-07-27T12:15:46.607Z,98348.72
2022-07-27T12:16:48.882Z,98341.88
2022-07-27T12:17:56.954Z,98338.88
2022-07-27T12:18:58.466Z,98339.03
2022-07-27T12:20:17.337Z,98341.31
2022-07-27T12:21:19.580Z,98336.78
2022-07-27T12:22:26.454Z,98339.97
2022-07-27T12:23:29.545Z,98336.56
2022-07-27T12:24:43.055Z,98332.19
2022-07-27T12:25:47.022Z,98343.66
2022-07-27T12:27:11.795Z,98342.69
2022-07-27T12:28:15.152Z,98342.16
2022-07-27T12:29:17.015Z,98351.41
2022-07-27T12:30:27.780Z,98350.59
2022-07-27T12:31:29.780Z,98346.84
2022-07-27T12:32:35.741Z,98342.69
2022-07-27T12:33:38.220Z,98338.06
2022-07-27T12:34:39.764Z,98340.72
2022-07-27T12:35:46.401Z,98342.09